sensor_id;sensor_type;location;lat;lon;timestamp;pressure;altitude;pressure_sealevel;temperature;humidity
57562;BME280;43397;51.530;5.974;2022-09-21T00:01:19;102219.69;;;11.62;100.00
57562;BME280;43397;51.530;5.974;2022-09-21T00:03:46;102229.28;;;11.41;100.00
57562;BME280;43397;51.530;5.974;2022-09-21T00:06:14;102233.56;;;11.30;100.00
57562;BME280;43397;51.530;5.974;2022-09-21T00:08:40;102223.19;;;11.55;100.00
57562;BME280;43397;51.530;5.974;2022-09-21T00:11:10;102229.50;;;11.63;100.00
57562;BME280;43397;51.530;5.974;2022-09-21T00:13:37;102225.03;;;11.62;100.00
57562;BME280;43397;51.530;5.974;2022-09-21T00:16:04;102225.13;;;11.69;100.00
57562;BME280;43397;51.530;5.974;2022-09-21T00:18:30;102229.50;;;11.63;100.00
57562;BME280;43397;51.530;5.974;2022-09-21T00:20:56;102220.66;;;11.68;100.00
57562;BME280;43397;51.530;5.974;2022-09-21T00:23:22;102223.22;;;11.58;100.00
57562;BME280;43397;51.530;5.974;2022-09-21T00:25:48;102228.44;;;11.47;100.00
57562;BME280;43397;51.530;5.974;2022-09-21T00:28:14;102219.38;;;11.28;100.00
57562;BME280;43397;51.530;5.974;2022-09-21T00:30:41;102221.78;;;11.06;100.00
57562;BME280;43397;51.530;5.974;2022-09-21T00:33:07;102226.34;;;11.15;100.00
57562;BME280;43397;51.530;5.974;2022-09-21T00:35:33;102223.75;;;11.23;100.00
57562;BME280;43397;51.530;5.974;2022-09-21T00:38:00;102229.09;;;11.24;100.00
57562;BME280;43397;51.530;5.974;2022-09-21T00:40:26;102228.31;;;11.36;100.00
57562;BME280;43397;51.530;5.974;2022-09-21T00:42:52;102229.25;;;11.40;100.00
57562;BME280;43397;51.530;5.974;2022-09-21T00:45:18;102219.31;;;11.23;100.00
57562;BME280;43397;51.530;5.974;2022-09-21T00:47:48;102225.34;;;11.07;100.00
57562;BME280;43397;51.530;5.974;2022-09-21T00:50:18;102223.44;;;10.97;100.00
57562;BME280;43397;51.530;5.974;2022-09-21T00:52:48;102227.13;;;11.08;100.00
57562;BME280;43397;51.530;5.974;2022-09-21T00:55:19;102229.94;;;11.20;100.00
57562;BME280;43397;51.530;5.974;2022-09-21T00:57:50;102228.91;;;11.09;100.00
57562;BME280;43397;51.530;5.974;2022-09-21T01:00:18;102230.81;;;11.19;100.00
57562;BME280;43397;51.530;5.974;2022-09-21T01:02:46;102229.66;;;10.96;100.00
57562;BME280;43397;51.530;5.974;2022-09-21T01:05:12;102230.25;;;10.75;100.00
57562;BME280;43397;51.530;5.974;2022-09-21T01:07:40;102231.22;;;10.81;100.00
57562;BME280;43397;51.530;5.974;2022-09-21T01:10:09;102237.34;;;10.74;100.00
57562;BME280;43397;51.530;5.974;2022-09-21T01:12:45;102241.06;;;10.88;100.00
57562;BME280;43397;51.530;5.974;2022-09-21T01:15:25;102227.63;;;10.76;100.00
57562;BME280;43397;51.530;5.974;2022-09-21T01:18:00;102233.88;;;10.78;100.00
57562;BME280;43397;51.530;5.974;2022-09-21T01:23:39;102236.31;;;10.64;100.00
57562;BME280;43397;51.530;5.974;2022-09-21T01:26:15;102232.81;;;10.65;100.00
57562;BME280;43397;51.530;5.974;2022-09-21T01:29:09;102233.16;;;10.93;100.00
57562;BME280;43397;51.530;5.974;2022-09-21T01:31:39;102238.59;;;11.04;100.00
57562;BME280;43397;51.530;5.974;2022-09-21T01:34:09;102231.44;;;10.98;100.00
57562;BME280;43397;51.530;5.974;2022-09-21T01:36:37;102234.13;;;11.01;100.00
57562;BME280;43397;51.530;5.974;2022-09-21T01:39:08;102239.50;;;11.06;100.00
57562;BME280;43397;51.530;5.974;2022-09-21T01:41:37;102226.78;;;10.82;100.00
57562;BME280;43397;51.530;5.974;2022-09-21T01:44:10;102231.59;;;11.12;100.00
57562;BME280;43397;51.530;5.974;2022-09-21T01:46:38;102224.50;;;11.12;100.00
57562;BME280;43397;51.530;5.974;2022-09-21T01:49:10;102231.59;;;11.10;100.00
57562;BME280;43397;51.530;5.974;2022-09-21T01:51:41;102231.38;;;10.95;100.00
57562;BME280;43397;51.530;5.974;2022-09-21T01:54:11;102231.34;;;10.90;100.00
57562;BME280;43397;51.530;5.974;2022-09-21T01:56:42;102226.78;;;10.82;100.00
57562;BME280;43397;51.530;5.974;2022-09-21T01:59:15;102232.50;;;11.11;100.00
57562;BME280;43397;51.530;5.974;2022-09-21T02:01:45;102232.31;;;10.97;100.00
57562;BME280;43397;51.530;5.974;2022-09-21T02:04:13;102234.00;;;10.89;100.00
57562;BME280;43397;51.530;5.974;2022-09-21T02:06:41;102235.78;;;10.90;100.00
57562;BME280;43397;51.530;5.974;2022-09-21T02:09:08;102225.25;;;11.01;100.00
57562;BME280;43397;51.530;5.974;2022-09-21T02:11:36;102225.03;;;10.81;100.00
57562;BME280;43397;51.530;5.974;2022-09-21T02:14:02;102231.28;;;10.86;100.00
57562;BME280;43397;51.530;5.974;2022-09-21T02:16:33;102224.28;;;10.93;100.00
57562;BME280;43397;51.530;5.974;2022-09-21T02:19:10;102227.06;;;11.03;100.00
57562;BME280;43397;51.530;5.974;2022-09-21T02:21:45;102222.63;;;11.02;100.00
57562;BME280;43397;51.530;5.974;2022-09-21T02:24:22;102230.72;;;11.15;100.00
57562;BME280;43397;51.530;5.974;2022-09-21T02:26:55;102226.38;;;11.21;100.00
57562;BME280;43397;51.530;5.974;2022-09-21T02:29:29;102229.06;;;11.23;100.00
57562;BME280;43397;51.530;5.974;2022-09-21T02:32:02;102223.69;;;11.18;100.00
57562;BME280;43397;51.530;5.974;2022-09-21T02:34:33;102223.66;;;11.17;100.00
57562;BME280;43397;51.530;5.974;2022-09-21T02:37:06;102224.59;;;11.17;100.00
57562;BME280;43397;51.530;5.974;2022-09-21T02:39:42;102228.09;;;11.13;100.00
57562;BME280;43397;51.530;5.974;2022-09-21T02:42:13;102219.78;;;10.87;100.00
57562;BME280;43397;51.530;5.974;2022-09-21T02:44:45;102224.63;;;10.50;100.00
57562;BME280;43397;51.530;5.974;2022-09-21T02:47:20;102227.41;;;10.62;100.00
57562;BME280;43397;51.530;5.974;2022-09-21T02:49:51;102231.72;;;10.49;100.00
57562;BME280;43397;51.530;5.974;2022-09-21T02:52:20;102223.94;;;10.66;100.00
57562;BME280;43397;51.530;5.974;2022-09-21T02:54:48;102226.13;;;10.33;100.00
57562;BME280;43397;51.530;5.974;2022-09-21T02:57:16;102227.38;;;10.58;100.00
57562;BME280;43397;51.530;5.974;2022-09-21T02:59:43;102229.66;;;10.32;100.00
57562;BME280;43397;51.530;5.974;2022-09-21T03:02:09;102226.25;;;10.42;100.00
57562;BME280;43397;51.530;5.974;2022-09-21T03:04:37;102221.88;;;10.44;100.00
57562;BME280;43397;51.530;5.974;2022-09-21T03:07:03;102229.09;;;10.54;100.00
57562;BME280;43397;51.530;5.974;2022-09-21T03:09:29;102229.22;;;10.63;100.00
57562;BME280;43397;51.530;5.974;2022-09-21T03:11:54;102229.22;;;10.63;100.00
57562;BME280;43397;51.530;5.974;2022-09-21T03:14:20;102233.66;;;10.64;100.00
57562;BME280;43397;51.530;5.974;2022-09-21T03:16:46;102231.19;;;10.78;100.00
57562;BME280;43397;51.530;5.974;2022-09-21T03:19:13;102242.75;;;10.82;100.00
57562;BME280;43397;51.530;5.974;2022-09-21T03:21:40;102238.22;;;10.73;100.00
57562;BME280;43397;51.530;5.974;2022-09-21T03:24:06;102233.53;;;10.55;100.00
57562;BME280;43397;51.530;5.974;2022-09-21T03:26:32;102224.19;;;10.86;100.00
57562;BME280;43397;51.530;5.974;2022-09-21T03:28:58;102231.97;;;10.69;100.00
57562;BME280;43397;51.530;5.974;2022-09-21T03:31:24;102231.19;;;10.78;100.00
57562;BME280;43397;51.530;5.974;2022-09-21T03:33:49;102234.78;;;10.82;100.00
57562;BME280;43397;51.530;5.974;2022-09-21T03:36:15;102233.97;;;10.87;100.00
57562;BME280;43397;51.530;5.974;2022-09-21T03:38:42;102235.59;;;10.78;100.00
57562;BME280;43397;51.530;5.974;2022-09-21T03:41:09;102237.22;;;10.66;100.00
57562;BME280;43397;51.530;5.974;2022-09-21T03:43:34;102235.34;;;10.56;100.00
57562;BME280;43397;51.530;5.974;2022-09-21T03:46:00;102238.84;;;10.55;100.00
57562;BME280;43397;51.530;5.974;2022-09-21T03:48:26;102236.06;;;10.46;100.00
57562;BME280;43397;51.530;5.974;2022-09-21T03:50:52;102240.03;;;10.18;100.00
57562;BME280;43397;51.530;5.974;2022-09-21T03:53:18;102242.63;;;10.15;100.00
57562;BME280;43397;51.530;5.974;2022-09-21T03:55:46;102238.66;;;10.41;100.00
57562;BME280;43397;51.530;5.974;2022-09-21T03:58:12;102244.53;;;10.22;100.00
57562;BME280;43397;51.530;5.974;2022-09-21T04:00:37;102246.38;;;10.27;100.00
57562;BME280;43397;51.530;5.974;2022-09-21T04:03:03;102252.53;;;10.25;100.00
57562;BME280;43397;51.530;5.974;2022-09-21T04:05:30;102239.50;;;9.85;100.00
57562;BME280;43397;51.530;5.974;2022-09-21T04:07:55;102245.06;;;10.01;100.00
57562;BME280;43397;51.530;5.974;2022-09-21T04:10:22;102236.09;;;9.93;100.00
57562;BME280;43397;51.530;5.974;2022-09-21T04:12:49;102241.56;;;10.02;100.00
57562;BME280;43397;51.530;5.974;2022-09-21T04:15:17;102245.44;;;9.69;100.00
57562;BME280;43397;51.530;5.974;2022-09-21T04:17:43;102240.41;;;9.86;100.00
57562;BME280;43397;51.530;5.974;2022-09-21T04:20:09;102242.91;;;9.77;100.00
57562;BME280;43397;51.530;5.974;2022-09-21T04:22:35;102242.06;;;9.78;100.00
57562;BME280;43397;51.530;5.974;2022-09-21T04:25:01;102250.56;;;9.58;100.00
57562;BME280;43397;51.530;5.974;2022-09-21T04:27:27;102249.06;;;9.25;100.00
57562;BME280;43397;51.530;5.974;2022-09-21T04:29:54;102250.16;;;9.38;100.00
57562;BME280;43397;51.530;5.974;2022-09-21T04:32:19;102249.78;;;9.65;100.00
57562;BME280;43397;51.530;5.974;2022-09-21T04:34:45;102244.16;;;9.48;100.00
57562;BME280;43397;51.530;5.974;2022-09-21T04:37:11;102250.81;;;9.26;100.00
57562;BME280;43397;51.530;5.974;2022-09-21T04:39:37;102253.94;;;9.05;100.00
57562;BME280;43397;51.530;5.974;2022-09-21T04:42:03;102255.78;;;9.55;100.00
57562;BME280;43397;51.530;5.974;2022-09-21T04:44:29;102256.53;;;9.48;100.00
57562;BME280;43397;51.530;5.974;2022-09-21T04:46:56;102262.53;;;9.38;100.00
57562;BME280;43397;51.530;5.974;2022-09-21T04:49:24;102264.97;;;9.27;100.00
57562;BME280;43397;51.530;5.974;2022-09-21T04:51:50;102276.13;;;9.09;100.00
57562;BME280;43397;51.530;5.974;2022-09-21T04:54:15;102270.69;;;9.03;100.00
57562;BME280;43397;51.530;5.974;2022-09-21T04:56:41;102268.59;;;9.31;100.00
57562;BME280;43397;51.530;5.974;2022-09-21T04:59:07;102271.59;;;9.47;100.00
57562;BME280;43397;51.530;5.974;2022-09-21T05:01:33;102274.25;;;9.49;100.00
57562;BME280;43397;51.530;5.974;2022-09-21T05:04:01;102277.69;;;8.99;100.00
57562;BME280;43397;51.530;5.974;2022-09-21T05:06:27;102271.84;;;8.73;100.00
57562;BME280;43397;51.530;5.974;2022-09-21T05:08:53;102277.13;;;8.73;100.00
57562;BME280;43397;51.530;5.974;2022-09-21T05:11:19;102276.00;;;8.63;100.00
57562;BME280;43397;51.530;5.974;2022-09-21T05:13:45;102273.22;;;8.57;100.00
57562;BME280;43397;51.530;5.974;2022-09-21T05:16:11;102275.56;;;8.43;100.00
57562;BME280;43397;51.530;5.974;2022-09-21T05:18:37;102280.19;;;8.52;100.00
57562;BME280;43397;51.530;5.974;2022-09-21T05:21:04;102280.81;;;8.42;100.00
57562;BME280;43397;51.530;5.974;2022-09-21T05:23:31;102284.53;;;8.50;100.00
57562;BME280;43397;51.530;5.974;2022-09-21T05:25:57;102284.22;;;8.38;100.00
57562;BME280;43397;51.530;5.974;2022-09-21T05:28:24;102293.72;;;8.28;100.00
57562;BME280;43397;51.530;5.974;2022-09-21T05:30:56;102292.75;;;8.61;100.00
57562;BME280;43397;51.530;5.974;2022-09-21T05:33:24;102291.59;;;8.50;100.00
57562;BME280;43397;51.530;5.974;2022-09-21T05:35:59;102294.81;;;8.36;100.00
57562;BME280;43397;51.530;5.974;2022-09-21T05:38:30;102298.59;;;8.46;100.00
57562;BME280;43397;51.530;5.974;2022-09-21T05:40:56;102296.59;;;8.75;100.00
57562;BME280;43397;51.530;5.974;2022-09-21T05:43:23;102297.97;;;8.58;100.00
57562;BME280;43397;51.530;5.974;2022-09-21T05:45:52;102288.53;;;8.71;100.00
57562;BME280;43397;51.530;5.974;2022-09-21T05:48:24;102292.13;;;8.73;100.00
57562;BME280;43397;51.530;5.974;2022-09-21T05:50:55;102299.13;;;8.71;100.00
57562;BME280;43397;51.530;5.974;2022-09-21T05:53:42;102300.31;;;8.82;100.00
57562;BME280;43397;51.530;5.974;2022-09-21T05:56:16;102303.78;;;8.81;100.00
57562;BME280;43397;51.530;5.974;2022-09-21T05:58:52;102308.25;;;8.82;100.00
57562;BME280;43397;51.530;5.974;2022-09-21T06:01:33;102316.38;;;8.90;100.00
57562;BME280;43397;51.530;5.974;2022-09-21T06:04:02;102313.19;;;9.06;100.00
57562;BME280;43397;51.530;5.974;2022-09-21T06:06:28;102319.66;;;9.20;100.00
57562;BME280;43397;51.530;5.974;2022-09-21T06:08:56;102321.34;;;9.15;100.00
57562;BME280;43397;51.530;5.974;2022-09-21T06:11:21;102320.78;;;9.30;100.00
57562;BME280;43397;51.530;5.974;2022-09-21T06:13:47;102324.84;;;9.14;100.00
57562;BME280;43397;51.530;5.974;2022-09-21T06:16:13;102327.53;;;9.16;100.00
57562;BME280;43397;51.530;5.974;2022-09-21T06:18:39;102322.53;;;8.89;100.00
57562;BME280;43397;51.530;5.974;2022-09-21T06:21:06;102326.22;;;8.95;100.00
57562;BME280;43397;51.530;5.974;2022-09-21T06:23:32;102333.41;;;9.01;100.00
57562;BME280;43397;51.530;5.974;2022-09-21T06:25:59;102321.91;;;9.00;100.00
57562;BME280;43397;51.530;5.974;2022-09-21T06:28:25;102331.06;;;9.15;100.00
57562;BME280;43397;51.530;5.974;2022-09-21T06:30:53;102328.66;;;9.25;100.00
57562;BME280;43397;51.530;5.974;2022-09-21T06:33:19;102325.69;;;9.12;100.00
57562;BME280;43397;51.530;5.974;2022-09-21T06:35:50;102322.03;;;9.06;100.00
57562;BME280;43397;51.530;5.974;2022-09-21T06:38:16;102328.47;;;9.18;100.00
57562;BME280;43397;51.530;5.974;2022-09-21T06:40:42;102332.69;;;9.10;100.00
57562;BME280;43397;51.530;5.974;2022-09-21T06:43:09;102326.94;;;9.29;100.00
57562;BME280;43397;51.530;5.974;2022-09-21T06:45:35;102340.28;;;9.32;100.00
57562;BME280;43397;51.530;5.974;2022-09-21T06:48:01;102336.22;;;9.51;100.00
57562;BME280;43397;51.530;5.974;2022-09-21T06:50:27;102334.56;;;9.58;100.00
57562;BME280;43397;51.530;5.974;2022-09-21T06:52:53;102326.69;;;9.61;100.00
57562;BME280;43397;51.530;5.974;2022-09-21T06:55:19;102333.25;;;9.81;100.00
57562;BME280;43397;51.530;5.974;2022-09-21T06:57:45;102326.22;;;9.83;100.00
57562;BME280;43397;51.530;5.974;2022-09-21T07:00:13;102323.59;;;9.85;100.00
57562;BME280;43397;51.530;5.974;2022-09-21T07:02:41;102325.25;;;9.80;100.00
57562;BME280;43397;51.530;5.974;2022-09-21T07:05:08;102322.56;;;9.77;100.00
57562;BME280;43397;51.530;5.974;2022-09-21T07:07:33;102326.19;;;9.80;100.00
57562;BME280;43397;51.530;5.974;2022-09-21T07:09:59;102320.25;;;9.97;100.00
57562;BME280;43397;51.530;5.974;2022-09-21T07:12:26;102324.72;;;9.98;100.00
57562;BME280;43397;51.530;5.974;2022-09-21T07:14:52;102326.56;;;10.02;100.00
57562;BME280;43397;51.530;5.974;2022-09-21T07:17:19;102326.56;;;10.03;100.00
57562;BME280;43397;51.530;5.974;2022-09-21T07:19:46;102328.56;;;10.15;100.00
57562;BME280;43397;51.530;5.974;2022-09-21T07:22:12;102323.44;;;10.26;100.00
57562;BME280;43397;51.530;5.974;2022-09-21T07:24:37;102328.84;;;10.31;100.00
57562;BME280;43397;51.530;5.974;2022-09-21T07:27:03;102322.59;;;10.28;100.00
57562;BME280;43397;51.530;5.974;2022-09-21T07:29:29;102321.97;;;10.45;100.00
57562;BME280;43397;51.530;5.974;2022-09-21T07:31:55;102328.31;;;10.53;100.00
57562;BME280;43397;51.530;5.974;2022-09-21T07:34:22;102329.22;;;10.54;100.00
57562;BME280;43397;51.530;5.974;2022-09-21T07:36:48;102332.94;;;10.66;100.00
57562;BME280;43397;51.530;5.974;2022-09-21T07:39:14;102323.41;;;10.79;100.00
57562;BME280;43397;51.530;5.974;2022-09-21T07:41:40;102328.88;;;10.90;100.00
57562;BME280;43397;51.530;5.974;2022-09-21T07:44:06;102320.19;;;11.02;100.00
57562;BME280;43397;51.530;5.974;2022-09-21T07:46:32;102314.84;;;11.03;100.00
57562;BME280;43397;51.530;5.974;2022-09-21T07:48:58;102318.59;;;11.18;100.00
57562;BME280;43397;51.530;5.974;2022-09-21T07:51:25;102316.88;;;11.20;100.00
57562;BME280;43397;51.530;5.974;2022-09-21T07:53:53;102312.44;;;11.23;100.00
57562;BME280;43397;51.530;5.974;2022-09-21T07:56:19;102310.84;;;11.36;100.00
57562;BME280;43397;51.530;5.974;2022-09-21T07:58:45;102314.50;;;11.47;100.00
57562;BME280;43397;51.530;5.974;2022-09-21T08:01:11;102319.06;;;11.58;100.00
57562;BME280;43397;51.530;5.974;2022-09-21T08:03:37;102312.13;;;11.70;100.00
57562;BME280;43397;51.530;5.974;2022-09-21T08:06:03;102321.09;;;11.79;100.00
57562;BME280;43397;51.530;5.974;2022-09-21T08:08:30;102324.75;;;11.88;100.00
57562;BME280;43397;51.530;5.974;2022-09-21T08:11:01;102333.81;;;12.06;100.00
57562;BME280;43397;51.530;5.974;2022-09-21T08:13:27;102326.75;;;12.12;100.00
57562;BME280;43397;51.530;5.974;2022-09-21T08:15:56;102326.94;;;12.34;100.00
57562;BME280;43397;51.530;5.974;2022-09-21T08:18:22;102325.38;;;12.59;100.00
57562;BME280;43397;51.530;5.974;2022-09-21T08:20:52;102329.00;;;12.73;100.00
57562;BME280;43397;51.530;5.974;2022-09-21T08:23:18;102320.25;;;12.94;100.00
57562;BME280;43397;51.530;5.974;2022-09-21T08:25:45;102330.09;;;13.05;100.00
57562;BME280;43397;51.530;5.974;2022-09-21T08:28:11;102325.78;;;13.34;100.00
57562;BME280;43397;51.530;5.974;2022-09-21T08:30:37;102325.91;;;13.54;100.00
57562;BME280;43397;51.530;5.974;2022-09-21T08:33:02;102329.47;;;13.73;100.00
57562;BME280;43397;51.530;5.974;2022-09-21T08:35:28;102324.19;;;13.92;100.00
57562;BME280;43397;51.530;5.974;2022-09-21T08:37:54;102324.19;;;14.12;100.00
57562;BME280;43397;51.530;5.974;2022-09-21T08:40:20;102328.66;;;14.28;100.00
57562;BME280;43397;51.530;5.974;2022-09-21T08:42:54;102324.19;;;14.47;100.00
57562;BME280;43397;51.530;5.974;2022-09-21T08:45:24;102327.75;;;14.77;100.00
57562;BME280;43397;51.530;5.974;2022-09-21T08:47:52;102328.56;;;15.04;98.88
57562;BME280;43397;51.530;5.974;2022-09-21T08:50:33;102325.81;;;15.30;96.39
57562;BME280;43397;51.530;5.974;2022-09-21T08:53:04;102332.84;;;15.48;93.21
57562;BME280;43397;51.530;5.974;2022-09-21T08:55:31;102329.25;;;15.59;94.33
57562;BME280;43397;51.530;5.974;2022-09-21T08:57:59;102341.69;;;15.77;95.85
57562;BME280;43397;51.530;5.974;2022-09-21T09:00:24;102332.63;;;15.95;91.69
57562;BME280;43397;51.530;5.974;2022-09-21T09:03:07;102341.63;;;15.88;94.32
57562;BME280;43397;51.530;5.974;2022-09-21T09:05:44;102329.94;;;15.95;92.93
57562;BME280;43397;51.530;5.974;2022-09-21T09:08:31;102339.72;;;16.02;79.37
57562;BME280;43397;51.530;5.974;2022-09-21T09:11:12;102342.16;;;16.36;80.87
57562;BME280;43397;51.530;5.974;2022-09-21T09:13:55;102339.38;;;16.45;79.69
57562;BME280;43397;51.530;5.974;2022-09-21T09:16:31;102336.50;;;16.67;84.61
57562;BME280;43397;51.530;5.974;2022-09-21T09:19:09;102331.81;;;16.92;82.87
57562;BME280;43397;51.530;5.974;2022-09-21T09:21:41;102334.50;;;16.91;79.61
57562;BME280;43397;51.530;5.974;2022-09-21T09:24:11;102341.25;;;17.24;79.35
57562;BME280;43397;51.530;5.974;2022-09-21T09:26:42;102341.44;;;17.12;76.91
57562;BME280;43397;51.530;5.974;2022-09-21T09:29:13;102350.06;;;17.40;83.20
57562;BME280;43397;51.530;5.974;2022-09-21T09:31:41;102350.66;;;17.59;74.25
57562;BME280;43397;51.530;5.974;2022-09-21T09:34:11;102347.66;;;17.85;77.35
57562;BME280;43397;51.530;5.974;2022-09-21T09:36:44;102350.81;;;18.12;74.35
57562;BME280;43397;51.530;5.974;2022-09-21T09:39:13;102346.72;;;18.43;72.64
57562;BME280;43397;51.530;5.974;2022-09-21T09:42:01;102352.22;;;18.37;70.83
57562;BME280;43397;51.530;5.974;2022-09-21T09:44:47;102342.28;;;18.41;68.25
57562;BME280;43397;51.530;5.974;2022-09-21T09:47:25;102353.44;;;18.18;69.09
57562;BME280;43397;51.530;5.974;2022-09-21T09:50:04;102341.00;;;18.63;70.81
57562;BME280;43397;51.530;5.974;2022-09-21T09:52:32;102349.91;;;18.67;73.18
57562;BME280;43397;51.530;5.974;2022-09-21T09:54:58;102343.00;;;18.50;73.79
57562;BME280;43397;51.530;5.974;2022-09-21T09:57:28;102335.81;;;19.01;72.15
57562;BME280;43397;51.530;5.974;2022-09-21T09:59:57;102343.66;;;19.13;67.72
57562;BME280;43397;51.530;5.974;2022-09-21T10:02:25;102339.75;;;19.29;62.67
57562;BME280;43397;51.530;5.974;2022-09-21T10:04:55;102338.78;;;18.88;61.22
57562;BME280;43397;51.530;5.974;2022-09-21T10:07:32;102345.53;;;18.07;59.19
57562;BME280;43397;51.530;5.974;2022-09-21T10:09:58;102330.16;;;17.52;63.29
57562;BME280;43397;51.530;5.974;2022-09-21T10:12:24;102329.59;;;18.47;59.90
57562;BME280;43397;51.530;5.974;2022-09-21T10:14:52;102327.13;;;18.86;62.11
57562;BME280;43397;51.530;5.974;2022-09-21T10:17:23;102321.63;;;17.85;67.51
57562;BME280;43397;51.530;5.974;2022-09-21T10:19:58;102328.16;;;18.28;62.41
57562;BME280;43397;51.530;5.974;2022-09-21T10:22:24;102328.66;;;19.00;61.99
57562;BME280;43397;51.530;5.974;2022-09-21T10:24:52;102330.94;;;19.62;64.71
57562;BME280;43397;51.530;5.974;2022-09-21T10:27:21;102321.97;;;18.73;63.81
57562;BME280;43397;51.530;5.974;2022-09-21T10:29:49;102330.94;;;18.73;60.71
57562;BME280;43397;51.530;5.974;2022-09-21T10:32:22;102325.00;;;19.04;60.09
57562;BME280;43397;51.530;5.974;2022-09-21T10:35:13;102321.66;;;19.35;58.78
57562;BME280;43397;51.530;5.974;2022-09-21T10:37:40;102315.28;;;19.79;58.93
57562;BME280;43397;51.530;5.974;2022-09-21T10:40:22;102318.72;;;19.86;56.29
57562;BME280;43397;51.530;5.974;2022-09-21T10:42:48;102323.56;;;19.71;54.88
57562;BME280;43397;51.530;5.974;2022-09-21T10:45:16;102314.47;;;19.33;55.80
57562;BME280;43397;51.530;5.974;2022-09-21T10:47:46;102324.09;;;19.87;55.47
57562;BME280;43397;51.530;5.974;2022-09-21T10:50:22;102315.03;;;19.90;55.30
57562;BME280;43397;51.530;5.974;2022-09-21T10:52:48;102309.28;;;20.41;54.28
57562;BME280;43397;51.530;5.974;2022-09-21T10:55:17;102309.34;;;19.62;53.62
57562;BME280;43397;51.530;5.974;2022-09-21T10:57:45;102310.69;;;19.84;53.40
57562;BME280;43397;51.530;5.974;2022-09-21T11:00:25;102309.81;;;18.98;53.59
57562;BME280;43397;51.530;5.974;2022-09-21T11:02:53;102301.38;;;19.17;55.47
57562;BME280;43397;51.530;5.974;2022-09-21T11:05:23;102308.47;;;19.63;54.17
57562;BME280;43397;51.530;5.974;2022-09-21T11:07:54;102304.72;;;20.07;53.59
57562;BME280;43397;51.530;5.974;2022-09-21T11:10:28;102298.69;;;19.98;51.98
57562;BME280;43397;51.530;5.974;2022-09-21T11:13:04;102304.31;;;19.87;54.70
57562;BME280;43397;51.530;5.974;2022-09-21T11:15:45;102301.69;;;20.21;55.87
57562;BME280;43397;51.530;5.974;2022-09-21T11:18:21;102298.22;;;20.50;51.73
57562;BME280;43397;51.530;5.974;2022-09-21T11:20:53;102311.28;;;21.00;49.66
57562;BME280;43397;51.530;5.974;2022-09-21T11:23:29;102298.94;;;20.91;51.89
57562;BME280;43397;51.530;5.974;2022-09-21T11:26:01;102302.53;;;21.23;49.06
57562;BME280;43397;51.530;5.974;2022-09-21T11:28:36;102302.91;;;21.09;45.24
57562;BME280;43397;51.530;5.974;2022-09-21T11:31:14;102298.59;;;21.04;48.66
57562;BME280;43397;51.530;5.974;2022-09-21T11:34:02;102305.00;;;20.32;44.63
57562;BME280;43397;51.530;5.974;2022-09-21T11:36:36;102299.75;;;19.50;45.93
57562;BME280;43397;51.530;5.974;2022-09-21T11:39:15;102297.50;;;19.30;48.45
57562;BME280;43397;51.530;5.974;2022-09-21T11:42:04;102292.81;;;18.48;50.88
57562;BME280;43397;51.530;5.974;2022-09-21T11:44:42;102289.88;;;18.11;55.35
57562;BME280;43397;51.530;5.974;2022-09-21T11:47:20;102293.84;;;18.41;55.28
57562;BME280;43397;51.530;5.974;2022-09-21T11:50:04;102295.44;;;18.99;55.45
57562;BME280;43397;51.530;5.974;2022-09-21T11:52:44;102284.50;;;19.88;50.15
57562;BME280;43397;51.530;5.974;2022-09-21T11:55:35;102286.28;;;19.48;53.22
57562;BME280;43397;51.530;5.974;2022-09-21T11:58:03;102285.22;;;19.96;52.56
57562;BME280;43397;51.530;5.974;2022-09-21T12:00:41;102289.50;;;20.41;53.56
57562;BME280;43397;51.530;5.974;2022-09-21T12:03:37;102283.53;;;20.28;53.85
57562;BME280;43397;51.530;5.974;2022-09-21T12:06:31;102289.31;;;20.47;53.04
57562;BME280;43397;51.530;5.974;2022-09-21T12:09:18;102274.78;;;20.51;54.75
57562;BME280;43397;51.530;5.974;2022-09-21T12:11:54;102281.66;;;21.58;50.67
57562;BME280;43397;51.530;5.974;2022-09-21T12:14:27;102275.59;;;20.89;49.91
57562;BME280;43397;51.530;5.974;2022-09-21T12:17:01;102272.50;;;21.01;50.35
57562;BME280;43397;51.530;5.974;2022-09-21T12:19:44;102272.44;;;20.39;51.11
57562;BME280;43397;51.530;5.974;2022-09-21T12:22:14;102273.25;;;19.69;54.58
57562;BME280;43397;51.530;5.974;2022-09-21T12:24:45;102269.50;;;19.36;54.37
57562;BME280;43397;51.530;5.974;2022-09-21T12:27:26;102271.31;;;18.93;54.76
57562;BME280;43397;51.530;5.974;2022-09-21T12:29:56;102268.59;;;18.46;53.39
57562;BME280;43397;51.530;5.974;2022-09-21T12:32:38;102267.88;;;18.38;56.21
57562;BME280;43397;51.530;5.974;2022-09-21T12:35:12;102269.31;;;18.05;55.61
57562;BME280;43397;51.530;5.974;2022-09-21T12:37:45;102267.66;;;17.98;57.09
57562;BME280;43397;51.530;5.974;2022-09-21T12:40:17;102254.69;;;18.21;57.17
57562;BME280;43397;51.530;5.974;2022-09-21T12:42:47;102255.47;;;18.76;55.66
57562;BME280;43397;51.530;5.974;2022-09-21T12:45:18;102250.97;;;18.30;54.58
57562;BME280;43397;51.530;5.974;2022-09-21T12:47:51;102252.28;;;18.04;53.86
57562;BME280;43397;51.530;5.974;2022-09-21T12:50:24;102244.03;;;18.15;56.13
57562;BME280;43397;51.530;5.974;2022-09-21T12:52:54;102245.44;;;17.86;54.88
57562;BME280;43397;51.530;5.974;2022-09-21T12:55:33;102244.69;;;17.74;54.14
57562;BME280;43397;51.530;5.974;2022-09-21T12:58:05;102240.34;;;17.66;54.03
57562;BME280;43397;51.530;5.974;2022-09-21T13:00:39;102243.50;;;17.33;53.50
57562;BME280;43397;51.530;5.974;2022-09-21T13:03:11;102243.41;;;17.40;52.06